Time;durP1;ratioP1;P1;durP2;ratioP2;P2;SDS_P1;SDS_P2;PMS_P1;PMS_P2;Temp;Humidity;BMP_temperature;BMP_pressure;BME280_temperature;BME280_humidity;BME280_pressure;Samples;Min_cycle;Max_cycle;Signal;HPM_P1;HPM_P2
2022/06/17 00:01:30;;;;;;;6.93;4.70;;;17.70;99.90;;;;;;5064973;27;39410;-77
2022/06/17 00:03:56;;;;;;;7.80;4.70;;;17.70;99.90;;;;;;5050570;28;38831;-77
2022/06/17 00:06:28;;;;;;;8.10;5.20;;;17.70;99.90;;;;;;5062918;27;38558;-77
2022/06/17 00:08:54;;;;;;;5.82;4.60;;;17.60;99.90;;;;;;5050671;27;37312;-77
2022/06/17 00:11:27;;;;;;;7.18;4.82;;;17.60;99.90;;;;;;5054613;27;39799;-76
2022/06/17 00:13:53;;;;;;;7.07;4.70;;;17.60;99.90;;;;;;5074982;27;38698;-77
2022/06/17 00:16:21;;;;;;;6.45;5.13;;;17.60;99.90;;;;;;5056848;27;38886;-77
2022/06/17 00:18:48;;;;;;;8.73;4.97;;;17.60;99.90;;;;;;5049552;28;38278;-77
2022/06/17 00:21:27;;;;;;;7.95;5.22;;;17.50;99.90;;;;;;5051050;27;39414;-76
2022/06/17 00:23:54;;;;;;;5.00;4.47;;;17.40;99.90;;;;;;5048606;27;39279;-77
2022/06/17 00:26:22;;;;;;;6.03;4.65;;;17.40;99.90;;;;;;5056253;27;37268;-76
2022/06/17 00:28:49;;;;;;;6.47;4.68;;;17.30;99.90;;;;;;5048523;28;37800;-77
2022/06/17 00:31:15;;;;;;;6.05;4.82;;;17.30;99.90;;;;;;5047082;27;39621;-77
2022/06/17 00:33:42;;;;;;;6.25;4.72;;;17.30;99.90;;;;;;5069566;27;39389;-78
2022/06/17 00:36:13;;;;;;;6.32;5.18;;;17.20;99.90;;;;;;5056236;27;38060;-77
2022/06/17 00:38:39;;;;;;;9.07;4.93;;;17.20;99.90;;;;;;5051590;28;38696;-76
2022/06/17 00:41:28;;;;;;;11.93;5.68;;;17.20;99.90;;;;;;5051697;27;40002;-77
2022/06/17 00:43:54;;;;;;;9.93;5.65;;;17.20;99.90;;;;;;5056464;27;38535;-78
2022/06/17 00:46:43;;;;;;;7.47;5.38;;;17.10;99.90;;;;;;5054371;27;37927;-77
2022/06/17 00:49:15;;;;;;;5.40;4.85;;;17.10;99.90;;;;;;5065001;27;37333;-77
2022/06/17 00:52:04;;;;;;;6.80;5.05;;;17.10;99.90;;;;;;5050491;27;38563;-76
2022/06/17 00:54:43;;;;;;;7.05;4.70;;;17.00;99.90;;;;;;5071169;27;47313;-77
2022/06/17 00:57:25;;;;;;;7.43;4.97;;;17.00;99.90;;;;;;5058670;27;38689;-76
2022/06/17 01:00:17;;;;;;;7.13;5.00;;;16.90;99.90;;;;;;5075559;27;37801;-77
2022/06/17 01:03:01;;;;;;;5.88;5.22;;;16.90;99.90;;;;;;5053866;28;47255;-77
2022/06/17 01:05:50;;;;;;;6.78;5.53;;;16.90;99.90;;;;;;5054633;28;40248;-77
2022/06/17 01:11:13;;;;;;;7.68;5.13;;;16.90;99.90;;;;;;5059901;27;38437;-77
2022/06/17 01:13:40;;;;;;;6.50;5.15;;;17.00;99.90;;;;;;5049786;28;39536;-77
2022/06/17 01:16:07;;;;;;;5.95;4.93;;;17.00;99.90;;;;;;5054001;28;38474;-77
2022/06/17 01:18:37;;;;;;;7.40;5.47;;;17.00;99.90;;;;;;5053711;28;38264;-76
2022/06/17 01:21:16;;;;;;;6.88;5.90;;;17.00;99.90;;;;;;5051475;27;37802;-77
2022/06/17 01:23:43;;;;;;;7.95;5.63;;;17.10;99.90;;;;;;5053955;27;39605;-77
2022/06/17 01:26:09;;;;;;;6.22;5.57;;;17.00;99.90;;;;;;5051834;27;38621;-77
2022/06/17 01:28:36;;;;;;;7.68;5.57;;;17.10;99.90;;;;;;5057971;28;36867;-77
2022/06/17 01:31:04;;;;;;;6.32;5.43;;;17.10;99.90;;;;;;5054289;27;37674;-77
2022/06/17 01:33:40;;;;;;;7.47;5.53;;;17.10;99.90;;;;;;5048430;27;38464;-77
2022/06/17 01:36:26;;;;;;;7.75;6.22;;;17.10;99.90;;;;;;5060166;27;40137;-77
2022/06/17 01:38:56;;;;;;;8.80;5.43;;;17.00;99.90;;;;;;5073303;27;38885;-77
2022/06/17 01:41:32;;;;;;;9.60;6.15;;;17.00;99.90;;;;;;5054887;27;37187;-77
2022/06/17 01:44:08;;;;;;;7.78;6.07;;;17.00;99.90;;;;;;5055450;28;39699;-78
2022/06/17 01:46:40;;;;;;;7.85;5.55;;;17.10;99.90;;;;;;5051252;27;47365;-78
2022/06/17 01:49:14;;;;;;;5.82;5.32;;;17.10;99.90;;;;;;5044219;27;37957;-77
2022/06/17 01:51:47;;;;;;;8.82;6.80;;;17.10;99.90;;;;;;5054279;27;37010;-77
2022/06/17 01:54:51;;;;;;;7.68;6.20;;;17.10;99.90;;;;;;5052165;27;39481;-77
2022/06/17 01:57:27;;;;;;;8.43;6.80;;;17.10;99.90;;;;;;5049196;27;38696;-78
2022/06/17 02:00:01;;;;;;;13.70;7.25;;;17.10;99.90;;;;;;5059042;27;39816;-77
2022/06/17 02:02:29;;;;;;;13.25;8.77;;;17.10;99.90;;;;;;5051308;28;47067;-78
2022/06/17 02:04:58;;;;;;;12.30;8.35;;;17.10;99.90;;;;;;5051616;28;38325;-78
2022/06/17 02:07:34;;;;;;;13.10;8.60;;;17.20;99.90;;;;;;5058382;27;39273;-78
2022/06/17 02:10:01;;;;;;;13.75;8.82;;;17.20;99.90;;;;;;5055059;28;37419;-78
2022/06/17 02:12:29;;;;;;;15.70;9.50;;;17.30;99.90;;;;;;5056488;28;47276;-78
2022/06/17 02:14:56;;;;;;;12.30;9.07;;;17.20;99.90;;;;;;5057536;28;38719;-78
2022/06/17 02:17:29;;;;;;;14.38;8.57;;;17.20;99.90;;;;;;5066718;27;38439;-78
2022/06/17 02:19:56;;;;;;;11.15;8.32;;;17.20;99.90;;;;;;5052819;28;37871;-77
2022/06/17 02:22:25;;;;;;;12.45;9.15;;;17.20;99.90;;;;;;5048756;27;37996;-77
2022/06/17 02:24:55;;;;;;;14.02;9.10;;;17.20;99.90;;;;;;5075576;27;40877;-78
2022/06/17 02:27:22;;;;;;;11.15;8.15;;;17.10;99.90;;;;;;5058160;27;38339;-77
2022/06/17 02:29:49;;;;;;;13.25;8.82;;;17.10;99.90;;;;;;5061960;27;39096;-77
2022/06/17 02:32:16;;;;;;;14.90;9.30;;;17.10;99.90;;;;;;5061919;27;37840;-77
2022/06/17 02:35:30;;;;;;;12.30;9.63;;;17.00;99.90;;;;;;5068537;28;39375;-77
2022/06/17 02:37:56;;;;;;;12.00;8.48;;;17.00;99.90;;;;;;5036520;28;47163;-77
2022/06/17 02:40:32;;;;;;;10.70;8.20;;;16.90;99.90;;;;;;5061676;27;37691;-77
2022/06/17 02:43:01;;;;;;;14.98;9.50;;;16.90;99.90;;;;;;5070027;27;37146;-78
2022/06/17 02:45:32;;;;;;;11.07;8.30;;;16.90;99.90;;;;;;5069158;27;40330;-78
2022/06/17 02:47:59;;;;;;;9.98;8.05;;;16.80;99.90;;;;;;5068386;27;40112;-77
2022/06/17 02:50:27;;;;;;;11.88;8.45;;;16.90;99.90;;;;;;5073255;27;37661;-77
2022/06/17 02:52:56;;;;;;;11.50;8.63;;;16.90;99.90;;;;;;5068859;27;37244;-77
2022/06/17 02:55:38;;;;;;;12.88;8.85;;;16.90;99.90;;;;;;5074150;27;38586;-77
2022/06/17 02:58:51;;;;;;;13.70;8.27;;;16.90;99.90;;;;;;5081808;27;38372;-77
2022/06/17 03:01:24;;;;;;;14.13;10.00;;;17.00;99.90;;;;;;5069491;27;39193;-77
2022/06/17 03:03:53;;;;;;;13.68;9.48;;;17.00;99.90;;;;;;5076819;28;39781;-77
2022/06/17 03:06:32;;;;;;;13.77;9.95;;;17.10;99.90;;;;;;5073615;27;39983;-77
2022/06/17 03:09:13;;;;;;;12.82;9.10;;;17.20;99.90;;;;;;5076416;27;38470;-77
2022/06/17 03:11:41;;;;;;;13.00;9.20;;;17.30;99.90;;;;;;5073913;28;47328;-77
2022/06/17 03:14:09;;;;;;;13.63;8.57;;;17.30;99.90;;;;;;5083875;27;37014;-77
2022/06/17 03:16:36;;;;;;;11.45;8.88;;;17.30;99.90;;;;;;5086564;27;38854;-77
2022/06/17 03:19:02;;;;;;;14.25;9.45;;;17.40;99.90;;;;;;5082892;27;39377;-78
2022/06/17 03:21:28;;;;;;;14.95;8.50;;;17.40;99.90;;;;;;5084117;28;39838;-77
2022/06/17 03:24:12;;;;;;;10.73;8.75;;;17.50;99.90;;;;;;5078028;28;36709;-77
2022/06/17 03:26:48;;;;;;;12.27;9.00;;;17.60;99.90;;;;;;5067445;27;47122;-78
2022/06/17 03:29:18;;;;;;;11.15;8.75;;;17.60;99.90;;;;;;5072601;27;41035;-78
2022/06/17 03:31:51;;;;;;;10.55;8.10;;;17.60;99.90;;;;;;5075819;28;37423;-78
2022/06/17 03:34:23;;;;;;;15.30;8.88;;;17.60;99.90;;;;;;5082452;27;36868;-78
2022/06/17 03:37:02;;;;;;;10.95;8.93;;;17.60;99.90;;;;;;5085356;28;40068;-78
2022/06/17 03:39:28;;;;;;;18.38;9.38;;;17.70;99.90;;;;;;5074245;27;47276;-78
2022/06/17 03:42:00;;;;;;;10.13;8.07;;;17.70;99.90;;;;;;5073245;27;39957;-78
2022/06/17 03:44:34;;;;;;;12.35;8.90;;;17.70;99.90;;;;;;5061407;27;37866;-78
2022/06/17 03:47:12;;;;;;;12.38;8.35;;;17.70;99.90;;;;;;5062685;27;39796;-78
2022/06/17 03:49:42;;;;;;;11.75;8.23;;;17.80;99.90;;;;;;5071001;27;49059;-78
2022/06/17 03:52:20;;;;;;;11.40;8.30;;;17.80;99.90;;;;;;5073628;27;38344;-77
2022/06/17 03:54:46;;;;;;;9.80;7.90;;;17.80;99.90;;;;;;5074976;27;36499;-77
2022/06/17 03:57:15;;;;;;;9.73;7.72;;;17.80;99.90;;;;;;5064359;27;37633;-77
2022/06/17 03:59:45;;;;;;;12.40;8.85;;;17.80;99.90;;;;;;5063013;28;38931;-77
2022/06/17 04:02:14;;;;;;;14.98;8.68;;;17.80;99.90;;;;;;5088071;28;37302;-77
2022/06/17 04:04:47;;;;;;;9.48;8.50;;;17.90;99.90;;;;;;5063756;28;36916;-77
2022/06/17 04:07:14;;;;;;;10.48;7.57;;;17.90;99.90;;;;;;5065195;28;38321;-77
2022/06/17 04:09:43;;;;;;;11.00;8.15;;;17.90;99.90;;;;;;5064433;28;38351;-77
2022/06/17 04:12:11;;;;;;;11.43;8.18;;;17.90;99.90;;;;;;5064465;28;39721;-77
2022/06/17 04:14:50;;;;;;;10.63;7.72;;;17.90;99.90;;;;;;5077798;28;41197;-77
2022/06/17 04:17:27;;;;;;;9.45;7.45;;;17.90;99.90;;;;;;5081842;27;39655;-77
2022/06/17 04:20:23;;;;;;;13.48;8.30;;;17.90;99.90;;;;;;5081587;27;39003;-76
2022/06/17 04:22:53;;;;;;;9.88;7.70;;;17.90;99.90;;;;;;5078994;27;47559;-76
2022/06/17 04:25:33;;;;;;;10.18;7.07;;;17.90;99.90;;;;;;5069181;27;38109;-77
2022/06/17 04:28:06;;;;;;;10.60;7.28;;;17.90;99.90;;;;;;5094433;27;40247;-77
2022/06/17 04:31:00;;;;;;;10.95;7.28;;;17.90;99.90;;;;;;5076855;27;47272;-77
2022/06/17 04:33:40;;;;;;;7.75;7.03;;;17.90;99.90;;;;;;5079829;27;40533;-78
2022/06/17 04:36:20;;;;;;;8.80;7.88;;;17.90;99.90;;;;;;5107374;27;37941;-77
2022/06/17 04:38:54;;;;;;;8.57;7.70;;;17.90;99.90;;;;;;5086373;27;39044;-78
2022/06/17 04:41:25;;;;;;;11.55;7.38;;;17.90;99.90;;;;;;5074554;27;39308;-77
2022/06/17 04:43:55;;;;;;;13.52;7.78;;;18.00;99.90;;;;;;5074927;27;38624;-78
2022/06/17 04:46:25;;;;;;;12.98;7.70;;;18.00;99.90;;;;;;5072139;27;37155;-77
2022/06/17 04:48:57;;;;;;;9.57;7.93;;;18.00;99.90;;;;;;5052959;28;39831;-77
2022/06/17 04:51:25;;;;;;;12.57;7.28;;;18.00;99.90;;;;;;5055840;28;39106;-76
2022/06/17 04:53:53;;;;;;;13.13;7.30;;;18.00;99.90;;;;;;5054848;28;36781;-76
2022/06/17 04:56:45;;;;;;;10.50;6.45;;;18.10;99.90;;;;;;5053518;28;38179;-77
2022/06/17 04:59:37;;;;;;;10.40;7.60;;;18.10;99.90;;;;;;5088242;27;39836;-77
2022/06/17 05:02:22;;;;;;;13.13;7.67;;;18.10;99.90;;;;;;5060895;28;47091;-77
2022/06/17 05:04:51;;;;;;;11.45;7.72;;;18.10;99.90;;;;;;5083992;27;38678;-77
2022/06/17 05:07:17;;;;;;;12.57;7.63;;;18.10;99.90;;;;;;5070633;27;37877;-77
2022/06/17 05:10:07;;;;;;;11.25;7.93;;;18.10;99.90;;;;;;5079243;27;39677;-76
2022/06/17 05:12:57;;;;;;;10.07;8.00;;;18.20;99.90;;;;;;5072628;28;46826;-78
2022/06/17 05:15:24;;;;;;;10.93;7.50;;;18.20;99.90;;;;;;5071105;27;38461;-77
2022/06/17 05:17:50;;;;;;;10.15;7.10;;;18.20;99.90;;;;;;5081900;27;36931;-77
2022/06/17 05:20:19;;;;;;;12.75;7.80;;;18.30;99.90;;;;;;5072418;27;40749;-78
2022/06/17 05:22:54;;;;;;;10.73;7.28;;;18.40;99.90;;;;;;5076754;28;40075;-77
2022/06/17 05:25:32;;;;;;;8.30;6.85;;;18.40;99.90;;;;;;5096922;27;38620;-76
2022/06/17 05:27:59;;;;;;;8.70;6.78;;;18.50;99.90;;;;;;5068688;28;36338;-77
2022/06/17 05:30:29;;;;;;;9.93;6.65;;;18.50;99.90;;;;;;5074712;28;39665;-77
2022/06/17 05:32:56;;;;;;;10.52;7.15;;;18.60;99.90;;;;;;5078396;27;38337;-77
2022/06/17 05:35:22;;;;;;;10.15;6.53;;;18.70;99.90;;;;;;5066661;27;38720;-77
2022/06/17 05:37:49;;;;;;;11.23;7.80;;;18.80;99.90;;;;;;5069487;28;37106;-77
2022/06/17 05:40:16;;;;;;;7.45;6.63;;;18.90;99.90;;;;;;5079094;27;38448;-77
2022/06/17 05:42:45;;;;;;;10.07;7.45;;;18.90;99.90;;;;;;5083266;27;38881;-77
2022/06/17 05:45:23;;;;;;;8.88;7.75;;;18.90;99.90;;;;;;5080982;27;37650;-77
2022/06/17 05:47:49;;;;;;;9.07;7.60;;;19.00;99.90;;;;;;5080119;27;37302;-77
2022/06/17 05:50:17;;;;;;;9.30;7.05;;;19.10;99.90;;;;;;5094263;27;40558;-77
2022/06/17 05:53:05;;;;;;;8.70;6.95;;;19.20;99.90;;;;;;5059419;28;38413;-77
2022/06/17 05:55:34;;;;;;;11.18;6.15;;;19.40;99.90;;;;;;5066151;28;48153;-77
2022/06/17 05:58:00;;;;;;;12.13;6.82;;;19.50;99.90;;;;;;5064108;28;38345;-78
2022/06/17 06:00:28;;;;;;;8.75;6.93;;;19.70;99.90;;;;;;5055699;28;38536;-78
2022/06/17 06:02:58;;;;;;;6.80;5.97;;;19.80;99.90;;;;;;5062834;28;39138;-77
2022/06/17 06:05:26;;;;;;;11.95;6.20;;;19.80;99.90;;;;;;5067604;27;37824;-77
2022/06/17 06:07:53;;;;;;;10.98;6.70;;;19.90;99.90;;;;;;5083463;27;37774;-77
2022/06/17 06:10:19;;;;;;;8.38;6.18;;;20.00;99.90;;;;;;5083271;27;39398;-77
2022/06/17 06:12:56;;;;;;;12.00;6.68;;;20.10;99.90;;;;;;5077645;28;38860;-77
2022/06/17 06:15:29;;;;;;;8.75;6.10;;;20.10;99.90;;;;;;5080790;27;39510;-77
2022/06/17 06:17:55;;;;;;;9.38;6.38;;;20.10;99.90;;;;;;5058846;28;38542;-78
2022/06/17 06:20:22;;;;;;;10.27;6.25;;;20.20;99.90;;;;;;5071920;27;39733;-78
2022/06/17 06:22:49;;;;;;;7.40;5.80;;;20.20;99.90;;;;;;5082916;27;40136;-77
2022/06/17 06:25:17;;;;;;;7.20;5.97;;;20.30;99.90;;;;;;5075900;27;38860;-78
2022/06/17 06:27:43;;;;;;;9.27;5.45;;;20.50;99.90;;;;;;5080463;28;38664;-78
2022/06/17 06:30:22;;;;;;;9.82;6.13;;;20.60;99.90;;;;;;5077629;27;38934;-77
2022/06/17 06:32:54;;;;;;;7.55;5.18;;;20.60;99.90;;;;;;5058776;28;38987;-76
2022/06/17 06:35:24;;;;;;;9.25;6.40;;;20.90;99.90;;;;;;5054638;27;37980;-76
2022/06/17 06:37:50;;;;;;;5.80;5.07;;;20.80;99.90;;;;;;5060432;27;37099;-76
2022/06/17 06:40:17;;;;;;;8.50;5.40;;;20.80;99.90;;;;;;5062089;27;38992;-76
2022/06/17 06:42:45;;;;;;;11.90;6.15;;;20.90;99.90;;;;;;5064298;28;39459;-77
2022/06/17 06:45:16;;;;;;;8.90;5.97;;;21.00;99.90;;;;;;5067720;27;39401;-77
2022/06/17 06:47:44;;;;;;;8.20;5.75;;;21.10;99.90;;;;;;5056907;27;37479;-79
2022/06/17 06:50:19;;;;;;;8.88;5.47;;;21.20;99.90;;;;;;5073930;27;39687;-76
2022/06/17 06:52:46;;;;;;;8.38;5.32;;;21.40;99.90;;;;;;5073571;27;37775;-79
2022/06/17 06:55:13;;;;;;;8.88;5.32;;;21.40;99.90;;;;;;5061819;28;38405;-78
2022/06/17 06:57:49;;;;;;;8.60;5.13;;;21.40;99.90;;;;;;5049139;28;36755;-79
2022/06/17 07:00:20;;;;;;;7.60;4.90;;;21.60;99.90;;;;;;5067428;27;38553;-79
2022/06/17 07:02:47;;;;;;;10.80;5.28;;;21.80;99.90;;;;;;5080037;27;38703;-79
2022/06/17 07:05:13;;;;;;;8.93;5.38;;;21.80;99.90;;;;;;5075771;27;38905;-80
2022/06/17 07:07:41;;;;;;;8.52;5.50;;;21.90;99.90;;;;;;5083244;27;36270;-80
2022/06/17 07:10:12;;;;;;;8.00;4.93;;;22.00;99.90;;;;;;5070646;27;39723;-79
2022/06/17 07:12:38;;;;;;;7.43;5.07;;;21.90;99.90;;;;;;5077303;28;39244;-80
2022/06/17 07:15:08;;;;;;;8.48;5.13;;;21.90;99.90;;;;;;5082723;27;38359;-79
2022/06/17 07:17:34;;;;;;;9.52;4.97;;;22.20;99.90;;;;;;5105113;27;37747;-78
2022/06/17 07:20:01;;;;;;;8.70;5.40;;;22.40;99.90;;;;;;5081009;28;39495;-79
2022/06/17 07:22:27;;;;;;;8.25;4.90;;;22.50;99.90;;;;;;5069651;27;49005;-79
2022/06/17 07:24:53;;;;;;;9.15;5.03;;;22.70;99.90;;;;;;5051603;28;38525;-79
2022/06/17 07:27:20;;;;;;;10.93;5.60;;;22.60;99.90;;;;;;5064631;27;36656;-79
2022/06/17 07:29:46;;;;;;;8.68;5.07;;;22.60;99.90;;;;;;5063017;28;39204;-80
2022/06/17 07:32:12;;;;;;;6.60;4.60;;;22.70;99.90;;;;;;5071121;27;38651;-79
2022/06/17 07:34:38;;;;;;;7.20;4.88;;;23.00;99.90;;;;;;5078263;27;37295;-80
2022/06/17 07:39:53;;;;;;;9.75;5.25;;;23.20;99.90;;;;;;5063647;28;39409;-80
2022/06/17 07:42:22;;;;;;;7.97;4.93;;;23.20;99.90;;;;;;5083492;27;38100;-79
2022/06/17 07:44:49;;;;;;;11.35;5.25;;;23.30;99.90;;;;;;5081651;27;38123;-80
2022/06/17 07:47:18;;;;;;;8.75;4.03;;;23.50;99.90;;;;;;5101504;27;37901;-79
2022/06/17 07:49:45;;;;;;;8.68;4.80;;;23.60;99.90;;;;;;5056681;28;39003;-79
2022/06/17 07:52:11;;;;;;;7.78;4.68;;;23.80;99.90;;;;;;5057537;27;39301;-79
2022/06/17 07:54:38;;;;;;;12.57;5.15;;;24.00;99.90;;;;;;5081539;28;38522;-80
2022/06/17 07:57:05;;;;;;;5.78;4.00;;;24.10;99.90;;;;;;5072811;28;38764;-79
2022/06/17 07:59:31;;;;;;;8.25;3.90;;;24.50;99.90;;;;;;5061482;27;38723;-80
2022/06/17 08:01:57;;;;;;;8.27;3.58;;;24.70;99.90;;;;;;5062884;28;38287;-79
2022/06/17 08:04:24;;;;;;;6.90;3.75;;;24.70;99.90;;;;;;5058490;28;38623;-79
2022/06/17 08:06:50;;;;;;;5.80;3.03;;;24.50;99.90;;;;;;5051547;28;38777;-79
2022/06/17 08:09:18;;;;;;;5.20;2.33;;;24.50;99.90;;;;;;5059962;27;38909;-79
2022/06/17 08:11:45;;;;;;;4.30;2.25;;;24.70;99.90;;;;;;5055768;28;38668;-79
2022/06/17 08:14:12;;;;;;;4.43;1.85;;;24.70;99.90;;;;;;5058628;27;39023;-79
2022/06/17 08:16:38;;;;;;;5.20;2.40;;;24.90;99.90;;;;;;5060135;28;38005;-78
2022/06/17 08:19:07;;;;;;;5.28;2.28;;;25.20;99.90;;;;;;5052118;27;40301;-77
2022/06/17 08:21:34;;;;;;;6.85;2.28;;;25.00;99.90;;;;;;5059473;28;37989;-78
2022/06/17 08:24:00;;;;;;;9.52;2.78;;;25.10;99.90;;;;;;5060909;27;38349;-77
2022/06/17 08:26:27;;;;;;;5.32;2.40;;;24.90;99.90;;;;;;5082871;28;47553;-78
2022/06/17 08:28:53;;;;;;;4.07;2.40;;;24.90;99.90;;;;;;5080480;27;38289;-78
2022/06/17 08:31:19;;;;;;;6.13;2.35;;;24.90;99.90;;;;;;5086986;27;37874;-78
2022/06/17 08:33:46;;;;;;;4.32;2.25;;;24.90;99.90;;;;;;5088168;27;38576;-78
2022/06/17 08:36:18;;;;;;;7.72;3.13;;;25.10;99.90;;;;;;5082368;27;37985;-78
2022/06/17 08:38:56;;;;;;;7.07;3.15;;;25.20;99.90;;;;;;5077365;28;39640;-77
2022/06/17 08:41:34;;;;;;;8.45;3.80;;;25.20;99.90;;;;;;5087017;27;39429;-77
2022/06/17 08:44:32;;;;;;;6.03;2.90;;;25.10;99.90;;;;;;5077309;27;40010;-78
2022/06/17 08:47:35;;;;;;;6.10;2.60;;;25.10;99.90;;;;;;5078089;28;47247;-78
2022/06/17 08:50:10;;;;;;;5.30;3.17;;;25.30;99.90;;;;;;5089392;27;48804;-78
2022/06/17 08:53:13;;;;;;;6.38;3.33;;;25.20;99.90;;;;;;5080621;27;38651;-78
2022/06/17 08:55:58;;;;;;;6.13;3.13;;;25.30;99.90;;;;;;5083443;27;48129;-78
2022/06/17 08:58:24;;;;;;;9.75;3.05;;;25.50;99.90;;;;;;5085706;27;38499;-78
2022/06/17 09:00:53;;;;;;;7.07;2.50;;;25.60;99.90;;;;;;5077988;27;39547;-78
2022/06/17 09:04:00;;;;;;;9.35;3.17;;;25.80;99.90;;;;;;5066304;27;38077;-78
2022/06/17 09:06:35;;;;;;;8.90;3.33;;;26.00;99.90;;;;;;5061570;28;38365;-77
2022/06/17 09:09:39;;;;;;;5.40;2.70;;;26.20;99.90;;;;;;5066625;27;37143;-77
2022/06/17 09:12:36;;;;;;;6.93;3.58;;;26.50;99.90;;;;;;5066637;27;39694;-78
2022/06/17 09:15:24;;;;;;;7.80;3.75;;;26.70;99.90;;;;;;5082128;27;39994;-76
2022/06/17 09:18:12;;;;;;;8.07;3.08;;;26.40;99.90;;;;;;5060609;28;37937;-78
2022/06/17 09:20:42;;;;;;;5.80;3.60;;;26.20;99.90;;;;;;5071431;27;47443;-75
2022/06/17 09:23:13;;;;;;;5.78;3.08;;;26.40;99.90;;;;;;5083949;27;39697;-77
2022/06/17 09:25:45;;;;;;;7.30;3.20;;;26.90;99.90;;;;;;5092764;27;39109;-76
2022/06/17 09:28:31;;;;;;;6.70;3.03;;;27.40;99.90;;;;;;5062369;27;39912;-77
2022/06/17 09:31:05;;;;;;;6.80;3.42;;;27.60;99.90;;;;;;5078088;27;34418;-75
2022/06/17 09:33:44;;;;;;;7.55;3.28;;;27.30;99.90;;;;;;5082366;27;48054;-76
2022/06/17 09:36:16;;;;;;;9.35;3.45;;;27.10;99.90;;;;;;5103996;27;40376;-77
2022/06/17 09:39:06;;;;;;;7.97;3.05;;;27.40;99.90;;;;;;5058509;28;38895;-77
2022/06/17 09:41:38;;;;;;;8.60;3.08;;;27.80;99.90;;;;;;5079145;27;48623;-78
2022/06/17 09:44:05;;;;;;;6.40;2.80;;;27.60;99.90;;;;;;5057402;28;40078;-78
2022/06/17 09:46:37;;;;;;;6.30;2.42;;;27.70;99.90;;;;;;5061430;28;38788;-77
2022/06/17 09:49:32;;;;;;;4.95;2.40;;;28.10;99.90;;;;;;5095094;27;38770;-78
2022/06/17 09:52:23;;;;;;;4.72;3.15;;;28.50;99.90;;;;;;5062898;27;36869;-78
2022/06/17 09:54:51;;;;;;;6.60;3.00;;;27.80;99.90;;;;;;5082410;28;47173;-78
2022/06/17 09:57:17;;;;;;;4.13;2.30;;;27.90;99.90;;;;;;5079959;27;38255;-78
2022/06/17 09:59:52;;;;;;;5.03;2.92;;;28.00;99.90;;;;;;5060538;28;38873;-77
2022/06/17 10:02:27;;;;;;;8.18;3.45;;;28.30;99.90;;;;;;5057674;28;37368;-78
2022/06/17 10:04:55;;;;;;;7.97;3.63;;;27.90;99.90;;;;;;5062060;28;39659;-77
2022/06/17 10:07:35;;;;;;;5.25;2.55;;;27.60;99.90;;;;;;5077901;27;39705;-78
2022/06/17 10:10:27;;;;;;;8.23;2.92;;;28.00;99.90;;;;;;5057601;28;37079;-78
2022/06/17 10:13:11;;;;;;;6.88;3.28;;;28.70;99.90;;;;;;5082913;27;48553;-78
2022/06/17 10:19:10;;;;;;;4.70;2.80;;;27.80;99.90;;;;;;5081950;27;49603;-78
2022/06/17 10:21:45;;;;;;;6.93;2.90;;;28.10;99.90;;;;;;5083858;27;47282;-78
2022/06/17 10:24:33;;;;;;;5.93;2.95;;;28.00;99.90;;;;;;5106713;27;36388;-77
2022/06/17 10:27:46;;;;;;;4.35;2.50;;;27.60;99.90;;;;;;5093047;28;38592;-77
2022/06/17 10:30:53;;;;;;;7.28;2.30;;;27.90;99.90;;;;;;5006617;28;47326;-78
2022/06/17 10:33:21;;;;;;;10.63;3.35;;;28.40;99.90;;;;;;5009289;28;36776;-77
2022/06/17 10:35:48;;;;;;;7.00;3.22;;;28.40;99.90;;;;;;5073578;27;38018;-78
2022/06/17 10:38:21;;;;;;;5.55;3.30;;;27.80;99.90;;;;;;5065408;27;40141;-77
2022/06/17 10:40:48;;;;;;;5.28;2.50;;;27.50;99.90;;;;;;5056659;28;39479;-78
2022/06/17 10:43:20;;;;;;;6.28;2.30;;;27.70;99.90;;;;;;5063491;28;38073;-78
2022/06/17 10:45:49;;;;;;;6.43;2.88;;;28.30;99.90;;;;;;5059466;28;37351;-78
2022/06/17 10:48:55;;;;;;;8.73;2.70;;;28.80;99.90;;;;;;5079144;27;39874;-78
2022/06/17 10:51:22;;;;;;;5.30;2.92;;;29.20;99.90;;;;;;5062157;28;38558;-78
2022/06/17 10:53:57;;;;;;;4.90;2.80;;;29.30;99.90;;;;;;5057656;28;40480;-78
2022/06/17 10:56:46;;;;;;;11.15;3.00;;;29.20;99.90;;;;;;5058887;28;37130;-77
2022/06/17 10:59:13;;;;;;;6.18;2.97;;;29.00;99.90;;;;;;5061545;28;39287;-78
2022/06/17 11:01:45;;;;;;;5.75;2.78;;;28.80;99.90;;;;;;5061588;28;39353;-78
2022/06/17 11:04:17;;;;;;;4.50;2.67;;;28.70;99.90;;;;;;5058294;27;37725;-77
2022/06/17 11:06:50;;;;;;;7.13;2.92;;;28.10;99.90;;;;;;5060511;28;37797;-78
2022/06/17 11:09:33;;;;;;;6.85;2.42;;;28.30;99.90;;;;;;5058768;28;39748;-78
2022/06/17 11:12:13;;;;;;;6.45;2.60;;;28.50;99.90;;;;;;5054352;28;39121;-77
2022/06/17 11:15:03;;;;;;;6.88;2.90;;;28.90;99.90;;;;;;5079445;27;48748;-77
2022/06/17 11:17:35;;;;;;;6.05;2.80;;;28.50;99.90;;;;;;5069304;27;48147;-77
2022/06/17 11:20:25;;;;;;;4.68;2.08;;;29.10;99.90;;;;;;5076382;27;39586;-78
2022/06/17 11:23:15;;;;;;;6.35;2.78;;;29.10;99.90;;;;;;5076212;27;39496;-77
2022/06/17 11:25:41;;;;;;;3.28;2.40;;;29.00;99.90;;;;;;5082463;27;47212;-77
2022/06/17 11:28:18;;;;;;;6.68;2.70;;;28.70;99.90;;;;;;5057820;27;38911;-78
2022/06/17 11:30:57;;;;;;;6.63;2.10;;;29.00;99.90;;;;;;5058868;28;39229;-79
2022/06/17 11:33:52;;;;;;;5.80;2.90;;;29.70;99.90;;;;;;5056589;28;39985;-76
2022/06/17 11:36:30;;;;;;;3.70;2.33;;;28.80;99.90;;;;;;5054332;27;38620;-76
2022/06/17 11:38:59;;;;;;;4.57;2.38;;;28.80;99.90;;;;;;5081686;27;36486;-77
2022/06/17 11:41:31;;;;;;;9.07;2.78;;;28.60;99.90;;;;;;5065439;28;38884;-77
2022/06/17 11:44:11;;;;;;;9.85;2.65;;;29.30;99.90;;;;;;5061662;27;39757;-77
2022/06/17 11:46:49;;;;;;;6.28;2.45;;;29.00;99.90;;;;;;5055792;28;48629;-77
2022/06/17 11:49:17;;;;;;;6.72;2.40;;;28.80;99.90;;;;;;5060905;27;38053;-77
2022/06/17 11:52:01;;;;;;;3.20;2.03;;;28.70;99.90;;;;;;5063061;28;39802;-77
2022/06/17 11:54:35;;;;;;;4.88;2.58;;;28.70;99.90;;;;;;5075745;28;47481;-75
2022/06/17 11:57:21;;;;;;;6.70;2.70;;;28.70;99.90;;;;;;5047607;28;38030;-76
2022/06/17 11:59:51;;;;;;;7.80;1.92;;;28.90;99.90;;;;;;5044984;28;37758;-76
2022/06/17 12:02:18;;;;;;;3.63;2.08;;;29.00;99.90;;;;;;5037351;28;39916;-79
2022/06/17 12:04:44;;;;;;;6.82;2.55;;;29.70;99.90;;;;;;5040708;28;39913;-76
2022/06/17 12:07:31;;;;;;;6.55;1.88;;;29.70;99.90;;;;;;5046422;28;38798;-76
2022/06/17 12:10:24;;;;;;;6.07;1.90;;;29.50;99.90;;;;;;5048433;28;37905;-76
2022/06/17 12:12:53;;;;;;;5.47;1.90;;;29.10;99.90;;;;;;5040274;28;47271;-76
2022/06/17 12:15:22;;;;;;;4.60;1.80;;;29.30;99.90;;;;;;5043090;28;37242;-77
2022/06/17 12:17:50;;;;;;;2.63;1.48;;;29.40;99.90;;;;;;5033465;28;37318;-76
2022/06/17 12:20:37;;;;;;;2.72;1.83;;;29.60;99.90;;;;;;5039880;28;37597;-76
2022/06/17 12:23:21;;;;;;;3.13;1.70;;;29.80;99.90;;;;;;5044120;28;37925;-76
2022/06/17 12:25:53;;;;;;;2.97;1.63;;;29.50;99.90;;;;;;5040380;28;39314;-76
2022/06/17 12:28:22;;;;;;;3.30;1.65;;;29.80;99.90;;;;;;5043932;28;38267;-78
2022/06/17 12:31:17;;;;;;;5.55;2.08;;;29.80;99.90;;;;;;5041949;28;37217;-76
2022/06/17 12:34:03;;;;;;;7.28;1.83;;;29.60;99.90;;;;;;5038950;28;48162;-76
2022/06/17 12:36:37;;;;;;;2.55;1.60;;;29.30;99.90;;;;;;5043653;27;48625;-77
2022/06/17 12:39:31;;;;;;;8.23;2.15;;;29.50;99.90;;;;;;5044803;28;37354;-77
2022/06/17 12:42:08;;;;;;;2.30;1.40;;;29.60;99.90;;;;;;5046369;28;37576;-77
2022/06/17 12:45:03;;;;;;;4.00;2.00;;;29.70;99.90;;;;;;5040122;28;47247;-77
2022/06/17 12:47:45;;;;;;;9.77;2.72;;;29.10;99.90;;;;;;5038162;28;47720;-77
2022/06/17 12:53:33;;;;;;;3.08;1.52;;;29.20;99.90;;;;;;5036498;28;37647;-77
2022/06/17 12:56:32;;;;;;;2.72;1.48;;;29.10;99.90;;;;;;5048111;28;39519;-77
2022/06/17 12:59:19;;;;;;;2.50;1.20;;;29.30;99.90;;;;;;5055838;28;47282;-78
2022/06/17 13:02:21;;;;;;;3.33;1.40;;;29.80;99.90;;;;;;5063889;28;47712;-77
2022/06/17 13:05:01;;;;;;;4.00;1.23;;;29.30;99.90;;;;;;5045544;28;47150;-77
2022/06/17 13:07:42;;;;;;;2.67;1.42;;;29.00;99.90;;;;;;5063014;28;47966;-77
2022/06/17 13:10:39;;;;;;;3.47;1.30;;;29.40;99.90;;;;;;5064003;28;38196;-77
2022/06/17 13:13:35;;;;;;;3.53;1.27;;;29.70;99.90;;;;;;5059302;28;38921;-77
2022/06/17 13:16:32;;;;;;;4.28;1.38;;;30.00;99.90;;;;;;5057461;28;37471;-77
2022/06/17 13:19:29;;;;;;;2.15;1.20;;;30.40;99.90;;;;;;5060522;28;37973;-79
2022/06/17 13:22:14;;;;;;;3.65;1.38;;;30.80;99.90;;;;;;5063818;28;48845;-78
2022/06/17 13:25:04;;;;;;;4.18;1.10;;;30.20;99.90;;;;;;5062389;27;47599;-78
2022/06/17 13:27:56;;;;;;;5.03;1.40;;;30.40;99.90;;;;;;5055031;28;49035;-78
2022/06/17 13:30:30;;;;;;;5.40;1.67;;;29.70;99.90;;;;;;5031222;28;39135;-78
2022/06/17 13:33:10;;;;;;;3.22;1.30;;;29.80;99.90;;;;;;5034746;28;37279;-78
2022/06/17 13:35:42;;;;;;;6.05;1.60;;;30.10;99.90;;;;;;5044705;28;49059;-78